Ship Status Report: callsign ZGCD7

sailwx.info

Track history (hours):
 
Tides and Currents Weather Stations Pressure Air Temp Water Temp Dewpoint Dewpoint Depression Visibility Wind Speed Wind Dir Waves Ship Positions

Callsign ZGCD7 (name unknown)

Last reported at 2015-Apr-09 10:22 UTC. Time now 2015-Apr-18 11:41 UTC.
Position N 37°25' E 025°56'.
Warning: this ship's position is 9 days out of date.

Date/timePositionNaut miles runAvg speedWind from/ knotsBaromVisibWave heightAir tempDewpointWater temp
2015-Apr-09 10:22N 37°25' E 025°56'24510.5
2015-Apr-08 11:03N 40°53' E 028°42'812.7
2015-Apr-08 10:27N 40°55' E 028°52'  
2015-Apr-02 22:21N 41°01' E 028°60'6 7.6
2015-Apr-02 21:33N 40°55' E 028°60'7 6.7
2015-Apr-02 20:31N 40°49' E 029°03'0 0.3
2015-Apr-02 19:33N 40°49' E 029°02'0 0.5
2015-Apr-02 18:31N 40°49' E 029°02'1 0.8
2015-Apr-02 17:29N 40°48' E 029°02'9 9.3
2015-Apr-02 16:33N 40°44' E 029°12'1010.0
2015-Apr-02 15:33N 40°45' E 029°25'5 0.2
2015-Apr-01 11:18N 40°46' E 029°32'0 0.0
2015-Apr-01 05:31N 40°46' E 029°32'2 2.0
2015-Apr-01 04:26N 40°45' E 029°34'4 0.2
2015-Mar-31 07:32N 40°45' E 029°29'7 6.8
2015-Mar-31 06:33N 40°44' E 029°20'1111.6
2015-Mar-31 05:33N 40°46' E 029°05'1212.0
2015-Mar-31 04:31N 40°55' E 028°55'2 0.6
2015-Mar-31 00:25N 40°57' E 028°53'0 0.0
2015-Mar-30 23:31N 40°57' E 028°53'0 0.0
2015-Mar-30 22:13N 40°57' E 028°53'0 0.0
2015-Mar-30 17:13N 40°57' E 028°53'0 0.0
2015-Mar-30 16:13N 40°57' E 028°53'0 0.0
2015-Mar-30 15:25N 40°57' E 028°53'0 0.0
2015-Mar-30 13:13N 40°57' E 028°53'8 3.1
2015-Mar-30 10:33N 40°51' E 028°45'  
Track history (hours):
 
Tides and Currents Weather Stations Pressure Air Temp Water Temp Dewpoint Dewpoint Depression Visibility Wind Speed Wind Dir Waves Ship Positions

Callsign ZGCD7 (name unknown)

Last reported at 2015-Apr-09 10:22 UTC. Time now 2015-Apr-18 11:41 UTC.
Position N 37°25' E 025°56'.
Warning: this ship's position is 9 days out of date.

Date/timePositionNaut miles runAvg speedWind from/ knotsBaromVisibWave heightAir tempDewpointWater temp
2015-Apr-09 10:22N 37°25' E 025°56'24510.5
2015-Apr-08 11:03N 40°53' E 028°42'812.7
2015-Apr-08 10:27N 40°55' E 028°52'  
2015-Apr-02 22:21N 41°01' E 028°60'6 7.6
2015-Apr-02 21:33N 40°55' E 028°60'7 6.7
2015-Apr-02 20:31N 40°49' E 029°03'0 0.3
2015-Apr-02 19:33N 40°49' E 029°02'0 0.5
2015-Apr-02 18:31N 40°49' E 029°02'1 0.8
2015-Apr-02 17:29N 40°48' E 029°02'9 9.3
2015-Apr-02 16:33N 40°44' E 029°12'1010.0
2015-Apr-02 15:33N 40°45' E 029°25'5 0.2
2015-Apr-01 11:18N 40°46' E 029°32'0 0.0
2015-Apr-01 05:31N 40°46' E 029°32'2 2.0
2015-Apr-01 04:26N 40°45' E 029°34'4 0.2
2015-Mar-31 07:32N 40°45' E 029°29'7 6.8
2015-Mar-31 06:33N 40°44' E 029°20'1111.6
2015-Mar-31 05:33N 40°46' E 029°05'1212.0
2015-Mar-31 04:31N 40°55' E 028°55'2 0.6
2015-Mar-31 00:25N 40°57' E 028°53'0 0.0
2015-Mar-30 23:31N 40°57' E 028°53'0 0.0
2015-Mar-30 22:13N 40°57' E 028°53'0 0.0
2015-Mar-30 17:13N 40°57' E 028°53'0 0.0
2015-Mar-30 16:13N 40°57' E 028°53'0 0.0
2015-Mar-30 15:25N 40°57' E 028°53'0 0.0
2015-Mar-30 13:13N 40°57' E 028°53'8 3.1
2015-Mar-30 10:33N 40°51' E 028°45'  

Dump ship's entire track history